sensor_id;sensor_type;location;lat;lon;timestamp;noise_LAeq;noise_LA_min;noise_LA_max;noise_LA01;noise_LA95
46584;Laerm;32309;48.858;8.252;2023-11-22T00:00:54;54.64;51.78;62.07;;
46584;Laerm;32309;48.858;8.252;2023-11-22T00:02:54;54.79;51.77;62.78;;
46584;Laerm;32309;48.858;8.252;2023-11-22T00:04:55;55.29;51.97;62.04;;
46584;Laerm;32309;48.858;8.252;2023-11-22T00:06:55;55.03;51.70;62.38;;
46584;Laerm;32309;48.858;8.252;2023-11-22T00:08:56;56.22;51.81;62.31;;
46584;Laerm;32309;48.858;8.252;2023-11-22T00:10:56;54.44;51.92;62.21;;
46584;Laerm;32309;48.858;8.252;2023-11-22T00:12:57;53.88;51.56;59.17;;
46584;Laerm;32309;48.858;8.252;2023-11-22T00:14:58;53.85;51.87;60.30;;
46584;Laerm;32309;48.858;8.252;2023-11-22T00:16:59;53.60;51.72;58.77;;
46584;Laerm;32309;48.858;8.252;2023-11-22T00:19:01;53.61;51.77;59.27;;
46584;Laerm;32309;48.858;8.252;2023-11-22T00:23:03;56.16;52.29;60.48;;
46584;Laerm;32309;48.858;8.252;2023-11-22T00:25:04;55.53;52.73;58.87;;
46584;Laerm;32309;48.858;8.252;2023-11-22T00:27:05;55.78;52.59;59.37;;
46584;Laerm;32309;48.858;8.252;2023-11-22T00:29:06;55.56;53.01;60.50;;
46584;Laerm;32309;48.858;8.252;2023-11-22T00:31:06;55.61;53.00;59.14;;
46584;Laerm;32309;48.858;8.252;2023-11-22T00:33:06;56.00;53.24;58.99;;
46584;Laerm;32309;48.858;8.252;2023-11-22T00:35:07;55.80;52.50;59.38;;
46584;Laerm;32309;48.858;8.252;2023-11-22T00:37:08;55.43;52.18;59.56;;
46584;Laerm;32309;48.858;8.252;2023-11-22T00:39:08;53.43;51.68;60.45;;
46584;Laerm;32309;48.858;8.252;2023-11-22T00:41:13;53.57;51.79;61.43;;
46584;Laerm;32309;48.858;8.252;2023-11-22T00:43:14;53.73;51.64;56.45;;
46584;Laerm;32309;48.858;8.252;2023-11-22T00:45:15;53.61;52.08;60.43;;
46584;Laerm;32309;48.858;8.252;2023-11-22T00:47:18;53.89;52.00;57.22;;
46584;Laerm;32309;48.858;8.252;2023-11-22T00:49:19;54.26;52.28;56.88;;
46584;Laerm;32309;48.858;8.252;2023-11-22T00:51:19;54.27;51.84;56.98;;
46584;Laerm;32309;48.858;8.252;2023-11-22T00:53:25;54.68;52.24;58.51;;
46584;Laerm;32309;48.858;8.252;2023-11-22T00:55:26;53.50;51.46;59.63;;
46584;Laerm;32309;48.858;8.252;2023-11-22T00:57:27;54.24;51.29;59.56;;
46584;Laerm;32309;48.858;8.252;2023-11-22T01:01:27;61.22;52.10;63.97;;
46584;Laerm;32309;48.858;8.252;2023-11-22T01:03:27;59.84;52.82;64.20;;
46584;Laerm;32309;48.858;8.252;2023-11-22T01:05:28;59.35;52.90;64.00;;
46584;Laerm;32309;48.858;8.252;2023-11-22T01:07:29;58.72;54.01;63.73;;
46584;Laerm;32309;48.858;8.252;2023-11-22T01:09:29;58.72;54.01;63.73;;
46584;Laerm;32309;48.858;8.252;2023-11-22T01:11:30;54.47;51.50;60.55;;
46584;Laerm;32309;48.858;8.252;2023-11-22T01:13:32;53.65;51.07;61.14;;
46584;Laerm;32309;48.858;8.252;2023-11-22T01:15:41;54.20;51.77;61.29;;
46584;Laerm;32309;48.858;8.252;2023-11-22T01:17:42;54.43;51.77;61.04;;
46584;Laerm;32309;48.858;8.252;2023-11-22T01:19:43;54.19;51.79;61.32;;
46584;Laerm;32309;48.858;8.252;2023-11-22T01:27:47;54.30;51.82;56.65;;
46584;Laerm;32309;48.858;8.252;2023-11-22T01:29:47;54.54;52.43;56.72;;
46584;Laerm;32309;48.858;8.252;2023-11-22T01:31:48;54.42;52.31;56.91;;
46584;Laerm;32309;48.858;8.252;2023-11-22T01:33:49;54.43;52.33;59.00;;
46584;Laerm;32309;48.858;8.252;2023-11-22T01:35:49;54.01;52.15;56.70;;
46584;Laerm;32309;48.858;8.252;2023-11-22T01:37:50;54.68;52.17;58.32;;
46584;Laerm;32309;48.858;8.252;2023-11-22T01:39:50;55.58;52.24;58.78;;
46584;Laerm;32309;48.858;8.252;2023-11-22T01:41:52;55.78;52.19;58.92;;
46584;Laerm;32309;48.858;8.252;2023-11-22T01:43:53;55.81;52.66;58.75;;
46584;Laerm;32309;48.858;8.252;2023-11-22T01:45:55;56.18;52.44;59.80;;
46584;Laerm;32309;48.858;8.252;2023-11-22T01:47:58;56.21;53.08;59.57;;
46584;Laerm;32309;48.858;8.252;2023-11-22T01:49:59;55.53;52.08;58.53;;
46584;Laerm;32309;48.858;8.252;2023-11-22T01:52:00;55.41;52.29;59.68;;
46584;Laerm;32309;48.858;8.252;2023-11-22T01:56:01;55.96;52.05;59.51;;
46584;Laerm;32309;48.858;8.252;2023-11-22T01:58:02;55.57;52.53;58.84;;
46584;Laerm;32309;48.858;8.252;2023-11-22T02:00:04;55.56;52.02;58.88;;
46584;Laerm;32309;48.858;8.252;2023-11-22T02:02:07;54.88;52.45;57.92;;
46584;Laerm;32309;48.858;8.252;2023-11-22T02:04:07;55.03;52.23;57.79;;
46584;Laerm;32309;48.858;8.252;2023-11-22T02:06:10;54.92;52.51;57.72;;
46584;Laerm;32309;48.858;8.252;2023-11-22T02:08:11;55.02;52.51;60.25;;
46584;Laerm;32309;48.858;8.252;2023-11-22T02:10:12;54.76;52.44;57.77;;
46584;Laerm;32309;48.858;8.252;2023-11-22T02:12:12;54.45;52.38;57.71;;
46584;Laerm;32309;48.858;8.252;2023-11-22T02:14:13;54.71;52.75;57.94;;
46584;Laerm;32309;48.858;8.252;2023-11-22T02:16:13;55.13;52.91;57.90;;
46584;Laerm;32309;48.858;8.252;2023-11-22T02:18:14;54.98;52.52;58.47;;
46584;Laerm;32309;48.858;8.252;2023-11-22T02:20:14;54.11;52.30;56.93;;
46584;Laerm;32309;48.858;8.252;2023-11-22T02:22:15;54.23;52.33;56.66;;
46584;Laerm;32309;48.858;8.252;2023-11-22T02:24:15;55.52;52.45;65.32;;
46584;Laerm;32309;48.858;8.252;2023-11-22T02:28:17;56.14;53.01;59.65;;
46584;Laerm;32309;48.858;8.252;2023-11-22T02:32:18;55.72;52.72;58.83;;
46584;Laerm;32309;48.858;8.252;2023-11-22T02:34:18;54.87;52.50;57.94;;
46584;Laerm;32309;48.858;8.252;2023-11-22T02:38:20;56.15;53.15;59.47;;
46584;Laerm;32309;48.858;8.252;2023-11-22T02:40:22;54.72;52.30;62.37;;
46584;Laerm;32309;48.858;8.252;2023-11-22T02:42:22;54.28;51.77;57.10;;
46584;Laerm;32309;48.858;8.252;2023-11-22T02:44:23;54.45;52.86;56.52;;
46584;Laerm;32309;48.858;8.252;2023-11-22T02:46:23;53.34;51.60;55.17;;
46584;Laerm;32309;48.858;8.252;2023-11-22T02:48:23;54.28;52.04;60.55;;
46584;Laerm;32309;48.858;8.252;2023-11-22T02:50:24;54.61;52.81;56.91;;
46584;Laerm;32309;48.858;8.252;2023-11-22T02:52:25;54.32;52.47;60.08;;
46584;Laerm;32309;48.858;8.252;2023-11-22T02:54:26;58.10;52.61;65.68;;
46584;Laerm;32309;48.858;8.252;2023-11-22T02:56:26;57.76;52.46;65.73;;
46584;Laerm;32309;48.858;8.252;2023-11-22T02:58:30;54.83;52.51;60.65;;
46584;Laerm;32309;48.858;8.252;2023-11-22T03:00:30;54.40;52.36;57.33;;
46584;Laerm;32309;48.858;8.252;2023-11-22T03:04:32;54.40;52.46;56.48;;
46584;Laerm;32309;48.858;8.252;2023-11-22T03:06:32;54.40;52.51;56.49;;
46584;Laerm;32309;48.858;8.252;2023-11-22T03:08:32;54.00;52.03;56.15;;
46584;Laerm;32309;48.858;8.252;2023-11-22T03:10:33;54.20;52.06;58.80;;
46584;Laerm;32309;48.858;8.252;2023-11-22T03:12:34;54.38;52.16;60.09;;
46584;Laerm;32309;48.858;8.252;2023-11-22T03:14:35;54.99;52.26;60.91;;
46584;Laerm;32309;48.858;8.252;2023-11-22T03:16:39;54.44;51.98;58.89;;
46584;Laerm;32309;48.858;8.252;2023-11-22T03:18:39;54.55;52.25;59.47;;
46584;Laerm;32309;48.858;8.252;2023-11-22T03:20:39;54.59;52.32;59.31;;
46584;Laerm;32309;48.858;8.252;2023-11-22T03:22:42;54.44;52.18;59.65;;
46584;Laerm;32309;48.858;8.252;2023-11-22T03:24:44;53.62;51.85;58.95;;
46584;Laerm;32309;48.858;8.252;2023-11-22T03:26:44;55.56;52.06;61.90;;
46584;Laerm;32309;48.858;8.252;2023-11-22T03:28:45;57.84;52.57;61.56;;
46584;Laerm;32309;48.858;8.252;2023-11-22T03:30:45;55.54;52.24;60.90;;
46584;Laerm;32309;48.858;8.252;2023-11-22T03:32:45;53.74;51.91;55.74;;
46584;Laerm;32309;48.858;8.252;2023-11-22T03:34:46;53.67;52.13;55.54;;
46584;Laerm;32309;48.858;8.252;2023-11-22T03:36:52;54.07;52.12;56.07;;
46584;Laerm;32309;48.858;8.252;2023-11-22T03:38:52;53.90;52.29;55.67;;
46584;Laerm;32309;48.858;8.252;2023-11-22T03:40:53;53.98;52.48;56.76;;
46584;Laerm;32309;48.858;8.252;2023-11-22T03:42:54;54.02;52.08;56.42;;
46584;Laerm;32309;48.858;8.252;2023-11-22T03:44:54;53.79;51.90;55.75;;
46584;Laerm;32309;48.858;8.252;2023-11-22T03:46:55;53.49;51.53;55.38;;
46584;Laerm;32309;48.858;8.252;2023-11-22T03:48:55;53.78;52.17;55.31;;
46584;Laerm;32309;48.858;8.252;2023-11-22T03:50:56;53.68;52.22;55.30;;
46584;Laerm;32309;48.858;8.252;2023-11-22T03:52:56;53.74;52.10;55.52;;
46584;Laerm;32309;48.858;8.252;2023-11-22T03:54:56;53.88;52.31;56.44;;
46584;Laerm;32309;48.858;8.252;2023-11-22T03:56:58;53.83;52.24;55.46;;
46584;Laerm;32309;48.858;8.252;2023-11-22T03:58:59;53.66;51.95;57.19;;
46584;Laerm;32309;48.858;8.252;2023-11-22T04:00:59;53.62;51.99;60.17;;
46584;Laerm;32309;48.858;8.252;2023-11-22T04:03:03;53.67;51.76;59.26;;
46584;Laerm;32309;48.858;8.252;2023-11-22T04:05:03;53.85;51.99;67.59;;
46584;Laerm;32309;48.858;8.252;2023-11-22T04:07:04;53.67;51.88;59.09;;
46584;Laerm;32309;48.858;8.252;2023-11-22T04:11:04;53.74;51.67;59.50;;
46584;Laerm;32309;48.858;8.252;2023-11-22T04:13:05;53.36;51.77;55.59;;
46584;Laerm;32309;48.858;8.252;2023-11-22T04:15:06;53.15;51.64;55.60;;
46584;Laerm;32309;48.858;8.252;2023-11-22T04:17:08;53.47;51.52;57.31;;
46584;Laerm;32309;48.858;8.252;2023-11-22T04:19:09;54.17;51.91;58.95;;
46584;Laerm;32309;48.858;8.252;2023-11-22T04:21:12;53.79;51.54;58.44;;
46584;Laerm;32309;48.858;8.252;2023-11-22T04:23:12;53.68;51.63;57.13;;
46584;Laerm;32309;48.858;8.252;2023-11-22T04:25:14;53.96;51.82;58.16;;
46584;Laerm;32309;48.858;8.252;2023-11-22T04:27:15;54.24;51.62;57.81;;
46584;Laerm;32309;48.858;8.252;2023-11-22T04:29:15;54.47;51.80;58.64;;
46584;Laerm;32309;48.858;8.252;2023-11-22T04:31:16;54.67;51.70;57.94;;
46584;Laerm;32309;48.858;8.252;2023-11-22T04:33:18;53.45;51.39;57.77;;
46584;Laerm;32309;48.858;8.252;2023-11-22T04:35:18;54.09;51.47;59.41;;
46584;Laerm;32309;48.858;8.252;2023-11-22T04:37:18;54.20;51.30;59.19;;
46584;Laerm;32309;48.858;8.252;2023-11-22T04:39:21;54.49;51.62;60.09;;
46584;Laerm;32309;48.858;8.252;2023-11-22T04:41:22;54.49;51.65;59.67;;
46584;Laerm;32309;48.858;8.252;2023-11-22T04:43:22;54.66;51.67;60.27;;
46584;Laerm;32309;48.858;8.252;2023-11-22T04:45:23;55.00;51.70;60.56;;
46584;Laerm;32309;48.858;8.252;2023-11-22T04:47:25;55.12;51.56;60.61;;
46584;Laerm;32309;48.858;8.252;2023-11-22T04:49:26;54.35;52.15;59.56;;
46584;Laerm;32309;48.858;8.252;2023-11-22T04:51:26;54.03;51.82;60.34;;
46584;Laerm;32309;48.858;8.252;2023-11-22T04:53:29;53.90;51.47;59.02;;
46584;Laerm;32309;48.858;8.252;2023-11-22T04:55:29;53.96;52.02;60.17;;
46584;Laerm;32309;48.858;8.252;2023-11-22T04:57:29;54.02;51.93;59.32;;
46584;Laerm;32309;48.858;8.252;2023-11-22T05:01:33;55.06;52.29;58.75;;
46584;Laerm;32309;48.858;8.252;2023-11-22T05:03:34;55.10;51.97;59.34;;
46584;Laerm;32309;48.858;8.252;2023-11-22T05:05:37;55.44;52.53;59.93;;
46584;Laerm;32309;48.858;8.252;2023-11-22T05:09:38;54.14;52.53;56.88;;
46584;Laerm;32309;48.858;8.252;2023-11-22T05:11:39;53.77;52.22;56.99;;
46584;Laerm;32309;48.858;8.252;2023-11-22T05:13:41;53.80;52.27;56.56;;
46584;Laerm;32309;48.858;8.252;2023-11-22T05:15:43;54.07;52.00;56.83;;
46584;Laerm;32309;48.858;8.252;2023-11-22T05:17:43;54.33;52.16;57.50;;
46584;Laerm;32309;48.858;8.252;2023-11-22T05:19:43;54.12;51.71;55.96;;
46584;Laerm;32309;48.858;8.252;2023-11-22T05:21:44;53.24;51.93;54.67;;
46584;Laerm;32309;48.858;8.252;2023-11-22T05:23:44;53.26;51.64;54.94;;
46584;Laerm;32309;48.858;8.252;2023-11-22T05:25:44;53.23;51.75;55.06;;
46584;Laerm;32309;48.858;8.252;2023-11-22T05:27:44;53.21;51.68;55.10;;
46584;Laerm;32309;48.858;8.252;2023-11-22T05:29:45;53.21;51.71;54.87;;
46584;Laerm;32309;48.858;8.252;2023-11-22T05:31:46;53.18;51.70;54.72;;
46584;Laerm;32309;48.858;8.252;2023-11-22T05:33:47;53.17;51.68;56.38;;
46584;Laerm;32309;48.858;8.252;2023-11-22T05:35:47;53.59;52.09;56.59;;
46584;Laerm;32309;48.858;8.252;2023-11-22T05:37:47;53.46;51.33;57.62;;
46584;Laerm;32309;48.858;8.252;2023-11-22T05:39:48;53.34;51.48;58.27;;
46584;Laerm;32309;48.858;8.252;2023-11-22T05:41:48;53.77;51.96;55.75;;
46584;Laerm;32309;48.858;8.252;2023-11-22T05:43:48;54.28;52.37;56.84;;
46584;Laerm;32309;48.858;8.252;2023-11-22T05:45:49;54.19;52.44;56.41;;
46584;Laerm;32309;48.858;8.252;2023-11-22T05:47:49;53.89;52.22;56.58;;
46584;Laerm;32309;48.858;8.252;2023-11-22T05:49:50;54.36;51.95;69.00;;
46584;Laerm;32309;48.858;8.252;2023-11-22T05:51:50;53.91;51.98;55.91;;
46584;Laerm;32309;48.858;8.252;2023-11-22T05:53:50;54.20;52.17;60.87;;
46584;Laerm;32309;48.858;8.252;2023-11-22T05:55:51;54.44;51.89;62.27;;
46584;Laerm;32309;48.858;8.252;2023-11-22T05:57:53;53.62;51.93;55.18;;
46584;Laerm;32309;48.858;8.252;2023-11-22T05:59:53;53.75;52.13;55.40;;
46584;Laerm;32309;48.858;8.252;2023-11-22T06:01:53;53.62;51.71;55.24;;
46584;Laerm;32309;48.858;8.252;2023-11-22T06:03:53;53.91;52.12;55.88;;
46584;Laerm;32309;48.858;8.252;2023-11-22T06:07:54;53.53;51.80;56.20;;
46584;Laerm;32309;48.858;8.252;2023-11-22T06:09:55;53.54;51.72;55.56;;
46584;Laerm;32309;48.858;8.252;2023-11-22T06:11:57;53.29;51.69;55.74;;
46584;Laerm;32309;48.858;8.252;2023-11-22T06:13:57;53.32;51.52;57.30;;
46584;Laerm;32309;48.858;8.252;2023-11-22T06:15:57;53.28;51.82;55.85;;
46584;Laerm;32309;48.858;8.252;2023-11-22T06:17:58;53.40;51.61;55.30;;
46584;Laerm;32309;48.858;8.252;2023-11-22T06:19:58;53.20;51.68;55.13;;
46584;Laerm;32309;48.858;8.252;2023-11-22T06:21:58;53.33;51.75;55.39;;
46584;Laerm;32309;48.858;8.252;2023-11-22T06:25:59;53.86;51.99;56.08;;
46584;Laerm;32309;48.858;8.252;2023-11-22T06:27:59;56.17;52.16;59.06;;
46584;Laerm;32309;48.858;8.252;2023-11-22T06:32:00;54.47;52.17;57.42;;
46584;Laerm;32309;48.858;8.252;2023-11-22T06:34:03;54.53;52.13;57.74;;
46584;Laerm;32309;48.858;8.252;2023-11-22T06:36:15;54.03;52.09;56.44;;
46584;Laerm;32309;48.858;8.252;2023-11-22T06:38:15;53.82;52.09;56.22;;
46584;Laerm;32309;48.858;8.252;2023-11-22T06:40:16;53.52;52.10;55.64;;
46584;Laerm;32309;48.858;8.252;2023-11-22T06:42:20;54.00;51.82;56.39;;
46584;Laerm;32309;48.858;8.252;2023-11-22T06:44:22;54.45;52.76;56.84;;
46584;Laerm;32309;48.858;8.252;2023-11-22T06:46:29;53.66;52.27;55.18;;
46584;Laerm;32309;48.858;8.252;2023-11-22T06:48:29;53.68;52.09;55.66;;
46584;Laerm;32309;48.858;8.252;2023-11-22T06:50:32;53.52;52.15;55.98;;
46584;Laerm;32309;48.858;8.252;2023-11-22T06:52:32;53.48;51.72;58.65;;
46584;Laerm;32309;48.858;8.252;2023-11-22T06:54:33;53.51;52.00;59.46;;
46584;Laerm;32309;48.858;8.252;2023-11-22T06:56:33;53.96;51.88;57.72;;
46584;Laerm;32309;48.858;8.252;2023-11-22T06:58:33;54.86;52.68;57.09;;
46584;Laerm;32309;48.858;8.252;2023-11-22T07:00:34;54.87;53.01;56.95;;
46584;Laerm;32309;48.858;8.252;2023-11-22T07:04:35;54.87;52.34;58.05;;
46584;Laerm;32309;48.858;8.252;2023-11-22T07:06:36;55.04;52.64;57.85;;
46584;Laerm;32309;48.858;8.252;2023-11-22T07:08:37;54.01;51.71;57.59;;
46584;Laerm;32309;48.858;8.252;2023-11-22T07:10:38;53.15;51.76;54.48;;
46584;Laerm;32309;48.858;8.252;2023-11-22T07:12:38;53.21;51.67;55.39;;
46584;Laerm;32309;48.858;8.252;2023-11-22T07:14:40;53.29;51.91;56.73;;
46584;Laerm;32309;48.858;8.252;2023-11-22T07:16:40;53.19;51.82;56.24;;
46584;Laerm;32309;48.858;8.252;2023-11-22T07:20:42;53.21;51.56;55.79;;
46584;Laerm;32309;48.858;8.252;2023-11-22T07:22:42;53.08;51.73;56.01;;
46584;Laerm;32309;48.858;8.252;2023-11-22T07:24:43;53.22;51.88;56.00;;
46584;Laerm;32309;48.858;8.252;2023-11-22T07:26:56;53.31;51.71;57.34;;
46584;Laerm;32309;48.858;8.252;2023-11-22T07:28:56;53.34;51.97;55.94;;
46584;Laerm;32309;48.858;8.252;2023-11-22T07:30:56;53.10;51.59;55.99;;
46584;Laerm;32309;48.858;8.252;2023-11-22T07:32:57;53.08;51.76;57.32;;
46584;Laerm;32309;48.858;8.252;2023-11-22T07:37:03;55.37;52.00;60.27;;
46584;Laerm;32309;48.858;8.252;2023-11-22T07:39:03;58.36;52.98;62.30;;
46584;Laerm;32309;48.858;8.252;2023-11-22T07:41:05;57.75;52.29;60.77;;
46584;Laerm;32309;48.858;8.252;2023-11-22T07:43:07;55.15;52.22;58.13;;
46584;Laerm;32309;48.858;8.252;2023-11-22T07:45:08;55.57;52.51;59.32;;
46584;Laerm;32309;48.858;8.252;2023-11-22T07:47:11;55.76;52.80;60.24;;
46584;Laerm;32309;48.858;8.252;2023-11-22T07:49:11;57.23;52.81;60.26;;
46584;Laerm;32309;48.858;8.252;2023-11-22T07:51:13;55.02;52.79;57.74;;
46584;Laerm;32309;48.858;8.252;2023-11-22T07:53:17;54.66;52.64;56.41;;
46584;Laerm;32309;48.858;8.252;2023-11-22T07:55:18;55.68;53.29;58.85;;
46584;Laerm;32309;48.858;8.252;2023-11-22T07:59:20;54.67;52.78;58.09;;
46584;Laerm;32309;48.858;8.252;2023-11-22T08:01:20;55.67;52.81;59.09;;
46584;Laerm;32309;48.858;8.252;2023-11-22T08:03:24;55.44;52.97;58.72;;
46584;Laerm;32309;48.858;8.252;2023-11-22T08:08:29;55.55;52.58;62.48;;
46584;Laerm;32309;48.858;8.252;2023-11-22T08:10:30;55.31;52.31;58.54;;
46584;Laerm;32309;48.858;8.252;2023-11-22T08:12:45;55.39;52.74;59.07;;
46584;Laerm;32309;48.858;8.252;2023-11-22T08:14:46;55.46;52.26;59.09;;
46584;Laerm;32309;48.858;8.252;2023-11-22T08:18:47;61.05;52.43;70.54;;
46584;Laerm;32309;48.858;8.252;2023-11-22T08:20:50;59.09;52.39;70.10;;
46584;Laerm;32309;48.858;8.252;2023-11-22T08:22:51;59.09;52.39;70.10;;
46584;Laerm;32309;48.858;8.252;2023-11-22T08:24:51;57.94;52.56;68.31;;
46584;Laerm;32309;48.858;8.252;2023-11-22T08:26:51;58.63;52.55;69.03;;
46584;Laerm;32309;48.858;8.252;2023-11-22T08:28:53;59.01;52.79;67.66;;
46584;Laerm;32309;48.858;8.252;2023-11-22T08:30:53;58.00;52.59;65.42;;
46584;Laerm;32309;48.858;8.252;2023-11-22T08:32:54;58.52;53.43;65.42;;
46584;Laerm;32309;48.858;8.252;2023-11-22T08:34:54;59.36;53.12;66.74;;
46584;Laerm;32309;48.858;8.252;2023-11-22T08:36:54;58.24;53.11;66.64;;
46584;Laerm;32309;48.858;8.252;2023-11-22T08:38:55;59.13;53.28;66.55;;
46584;Laerm;32309;48.858;8.252;2023-11-22T08:40:55;59.34;53.64;66.17;;
46584;Laerm;32309;48.858;8.252;2023-11-22T08:42:58;58.69;54.37;65.71;;
46584;Laerm;32309;48.858;8.252;2023-11-22T08:44:58;58.09;54.33;64.87;;
46584;Laerm;32309;48.858;8.252;2023-11-22T08:46:58;57.44;54.37;64.42;;
46584;Laerm;32309;48.858;8.252;2023-11-22T08:48:59;57.78;54.27;63.55;;
46584;Laerm;32309;48.858;8.252;2023-11-22T08:51:00;58.36;54.02;64.32;;
46584;Laerm;32309;48.858;8.252;2023-11-22T08:53:00;57.99;53.79;67.01;;
46584;Laerm;32309;48.858;8.252;2023-11-22T08:55:01;57.69;54.79;64.78;;
46584;Laerm;32309;48.858;8.252;2023-11-22T08:57:01;57.85;54.88;60.51;;
46584;Laerm;32309;48.858;8.252;2023-11-22T08:59:01;58.67;54.14;63.08;;
46584;Laerm;32309;48.858;8.252;2023-11-22T09:01:02;59.21;56.22;63.50;;
46584;Laerm;32309;48.858;8.252;2023-11-22T09:05:07;60.08;54.24;63.24;;
46584;Laerm;32309;48.858;8.252;2023-11-22T09:09:10;60.54;54.50;63.57;;
46584;Laerm;32309;48.858;8.252;2023-11-22T09:11:15;57.60;52.92;61.58;;
46584;Laerm;32309;48.858;8.252;2023-11-22T09:13:17;59.11;54.08;62.80;;
46584;Laerm;32309;48.858;8.252;2023-11-22T09:15:19;60.27;54.89;62.72;;
46584;Laerm;32309;48.858;8.252;2023-11-22T09:17:26;60.62;54.33;64.75;;
46584;Laerm;32309;48.858;8.252;2023-11-22T09:19:35;60.98;54.27;63.50;;
46584;Laerm;32309;48.858;8.252;2023-11-22T09:21:45;60.61;56.00;64.05;;
46584;Laerm;32309;48.858;8.252;2023-11-22T09:23:45;60.20;55.03;66.67;;
46584;Laerm;32309;48.858;8.252;2023-11-22T09:25:49;60.61;56.44;69.82;;
46584;Laerm;32309;48.858;8.252;2023-11-22T09:29:59;59.18;54.69;61.54;;
46584;Laerm;32309;48.858;8.252;2023-11-22T09:32:02;59.85;54.42;61.72;;
46584;Laerm;32309;48.858;8.252;2023-11-22T09:34:02;60.01;54.67;61.96;;
46584;Laerm;32309;48.858;8.252;2023-11-22T09:36:03;60.08;54.73;63.58;;
46584;Laerm;32309;48.858;8.252;2023-11-22T09:38:08;60.09;54.30;63.18;;
46584;Laerm;32309;48.858;8.252;2023-11-22T09:40:17;59.42;56.03;62.33;;
46584;Laerm;32309;48.858;8.252;2023-11-22T09:42:17;60.48;57.73;63.55;;
46584;Laerm;32309;48.858;8.252;2023-11-22T09:44:18;59.25;55.22;61.61;;
46584;Laerm;32309;48.858;8.252;2023-11-22T09:46:22;59.70;57.33;62.82;;
46584;Laerm;32309;48.858;8.252;2023-11-22T09:48:24;59.08;53.93;62.62;;
46584;Laerm;32309;48.858;8.252;2023-11-22T09:50:57;60.14;54.53;63.57;;
46584;Laerm;32309;48.858;8.252;2023-11-22T09:53:10;60.00;55.90;63.24;;
46584;Laerm;32309;48.858;8.252;2023-11-22T09:55:11;60.47;57.15;63.02;;
46584;Laerm;32309;48.858;8.252;2023-11-22T09:57:12;59.95;55.75;62.80;;
46584;Laerm;32309;48.858;8.252;2023-11-22T09:59:13;60.22;56.27;63.14;;
46584;Laerm;32309;48.858;8.252;2023-11-22T10:01:16;60.07;53.99;63.38;;
46584;Laerm;32309;48.858;8.252;2023-11-22T10:03:17;59.16;55.55;63.00;;
46584;Laerm;32309;48.858;8.252;2023-11-22T10:05:18;58.67;55.42;62.02;;
46584;Laerm;32309;48.858;8.252;2023-11-22T10:07:20;59.69;56.07;62.91;;
46584;Laerm;32309;48.858;8.252;2023-11-22T10:09:23;59.85;56.90;63.31;;
46584;Laerm;32309;48.858;8.252;2023-11-22T10:11:29;60.04;56.46;64.09;;
46584;Laerm;32309;48.858;8.252;2023-11-22T10:13:30;60.64;56.61;64.65;;
46584;Laerm;32309;48.858;8.252;2023-11-22T10:15:30;60.86;57.04;64.85;;
46584;Laerm;32309;48.858;8.252;2023-11-22T10:17:31;60.11;55.61;64.36;;
46584;Laerm;32309;48.858;8.252;2023-11-22T10:19:32;61.72;57.41;64.81;;
46584;Laerm;32309;48.858;8.252;2023-11-22T10:23:33;57.46;53.34;62.78;;
46584;Laerm;32309;48.858;8.252;2023-11-22T10:25:33;58.12;53.97;63.82;;
46584;Laerm;32309;48.858;8.252;2023-11-22T10:27:33;56.68;52.80;62.19;;
46584;Laerm;32309;48.858;8.252;2023-11-22T10:29:34;57.21;53.11;63.74;;
46584;Laerm;32309;48.858;8.252;2023-11-22T10:31:37;56.67;53.26;63.62;;
46584;Laerm;32309;48.858;8.252;2023-11-22T10:33:44;57.35;53.39;63.74;;
46584;Laerm;32309;48.858;8.252;2023-11-22T10:35:46;55.53;53.03;63.24;;
46584;Laerm;32309;48.858;8.252;2023-11-22T10:37:47;55.91;53.37;60.20;;
46584;Laerm;32309;48.858;8.252;2023-11-22T10:39:53;57.99;53.70;64.64;;
46584;Laerm;32309;48.858;8.252;2023-11-22T10:41:53;57.03;53.54;63.69;;
46584;Laerm;32309;48.858;8.252;2023-11-22T10:43:58;56.77;53.51;63.78;;
46584;Laerm;32309;48.858;8.252;2023-11-22T10:45:58;56.33;52.66;61.19;;
46584;Laerm;32309;48.858;8.252;2023-11-22T10:50:00;56.98;52.88;63.33;;
46584;Laerm;32309;48.858;8.252;2023-11-22T10:52:04;57.89;53.25;66.39;;
46584;Laerm;32309;48.858;8.252;2023-11-22T10:54:07;58.98;52.94;68.92;;
46584;Laerm;32309;48.858;8.252;2023-11-22T10:56:17;56.87;53.51;61.43;;
46584;Laerm;32309;48.858;8.252;2023-11-22T10:58:19;59.28;53.74;66.61;;
46584;Laerm;32309;48.858;8.252;2023-11-22T11:00:20;59.10;54.48;66.30;;
46584;Laerm;32309;48.858;8.252;2023-11-22T11:02:23;58.50;55.39;62.23;;
46584;Laerm;32309;48.858;8.252;2023-11-22T11:04:31;58.07;54.60;61.93;;
46584;Laerm;32309;48.858;8.252;2023-11-22T11:06:35;57.45;54.41;60.69;;
46584;Laerm;32309;48.858;8.252;2023-11-22T11:08:37;57.96;54.37;61.20;;
46584;Laerm;32309;48.858;8.252;2023-11-22T11:10:42;58.88;54.85;61.73;;
46584;Laerm;32309;48.858;8.252;2023-11-22T11:12:44;58.92;54.70;62.10;;
46584;Laerm;32309;48.858;8.252;2023-11-22T11:14:45;58.63;55.29;61.77;;
46584;Laerm;32309;48.858;8.252;2023-11-22T11:16:47;57.77;55.25;61.14;;
46584;Laerm;32309;48.858;8.252;2023-11-22T11:18:50;58.26;55.43;61.85;;
46584;Laerm;32309;48.858;8.252;2023-11-22T11:20:52;58.26;55.43;61.85;;
46584;Laerm;32309;48.858;8.252;2023-11-22T11:22:53;58.03;54.74;61.27;;
46584;Laerm;32309;48.858;8.252;2023-11-22T11:25:01;57.97;54.53;60.95;;
46584;Laerm;32309;48.858;8.252;2023-11-22T11:27:04;56.20;53.61;61.71;;
46584;Laerm;32309;48.858;8.252;2023-11-22T11:29:06;55.84;53.13;59.92;;
46584;Laerm;32309;48.858;8.252;2023-11-22T11:31:08;55.84;53.37;58.44;;
46584;Laerm;32309;48.858;8.252;2023-11-22T11:33:09;56.66;53.31;59.94;;
46584;Laerm;32309;48.858;8.252;2023-11-22T11:37:11;60.73;54.44;69.36;;
46584;Laerm;32309;48.858;8.252;2023-11-22T11:41:16;56.21;54.24;58.77;;
46584;Laerm;32309;48.858;8.252;2023-11-22T11:43:21;56.29;54.04;59.64;;
46584;Laerm;32309;48.858;8.252;2023-11-22T11:45:22;56.37;54.19;59.28;;
46584;Laerm;32309;48.858;8.252;2023-11-22T11:47:25;56.26;54.13;58.50;;
46584;Laerm;32309;48.858;8.252;2023-11-22T11:49:25;57.68;53.60;60.99;;
46584;Laerm;32309;48.858;8.252;2023-11-22T11:53:27;56.23;53.79;62.01;;
46584;Laerm;32309;48.858;8.252;2023-11-22T11:55:27;56.17;53.31;60.48;;
46584;Laerm;32309;48.858;8.252;2023-11-22T11:57:31;56.59;53.07;59.66;;
46584;Laerm;32309;48.858;8.252;2023-11-22T11:59:31;55.86;53.56;60.30;;
46584;Laerm;32309;48.858;8.252;2023-11-22T12:01:35;56.16;53.78;61.43;;
46584;Laerm;32309;48.858;8.252;2023-11-22T12:03:36;56.22;53.49;63.16;;
46584;Laerm;32309;48.858;8.252;2023-11-22T12:05:37;55.23;53.43;60.08;;
46584;Laerm;32309;48.858;8.252;2023-11-22T12:09:38;56.51;54.41;59.02;;
46584;Laerm;32309;48.858;8.252;2023-11-22T12:11:38;56.22;52.98;58.71;;
46584;Laerm;32309;48.858;8.252;2023-11-22T12:13:39;56.20;53.82;59.03;;
46584;Laerm;32309;48.858;8.252;2023-11-22T12:15:43;56.56;53.29;59.54;;
46584;Laerm;32309;48.858;8.252;2023-11-22T12:17:43;56.00;53.35;59.20;;
46584;Laerm;32309;48.858;8.252;2023-11-22T12:19:44;56.62;53.47;60.01;;
46584;Laerm;32309;48.858;8.252;2023-11-22T12:21:48;57.39;53.52;60.00;;
46584;Laerm;32309;48.858;8.252;2023-11-22T12:23:52;57.48;54.60;59.90;;